sensor_id;sensor_type;location;lat;lon;timestamp;temperature;humidity
3310;DHT22;1667;53.238;10.394;2023-10-09T00:03:58;14.90;99.90
3310;DHT22;1667;53.238;10.394;2023-10-09T00:08:59;14.90;99.90
3310;DHT22;1667;53.238;10.394;2023-10-09T00:14:09;14.90;99.90
3310;DHT22;1667;53.238;10.394;2023-10-09T00:19:10;14.90;99.90
3310;DHT22;1667;53.238;10.394;2023-10-09T00:24:15;14.90;99.90
3310;DHT22;1667;53.238;10.394;2023-10-09T00:29:21;14.90;99.90
3310;DHT22;1667;53.238;10.394;2023-10-09T00:34:22;14.90;99.90
3310;DHT22;1667;53.238;10.394;2023-10-09T00:39:24;14.90;99.90
3310;DHT22;1667;53.238;10.394;2023-10-09T00:44:41;14.80;99.90
3310;DHT22;1667;53.238;10.394;2023-10-09T00:49:41;14.90;99.90
3310;DHT22;1667;53.238;10.394;2023-10-09T00:54:41;14.90;99.90
3310;DHT22;1667;53.238;10.394;2023-10-09T00:59:43;14.80;99.90
3310;DHT22;1667;53.238;10.394;2023-10-09T01:04:45;14.80;99.90
3310;DHT22;1667;53.238;10.394;2023-10-09T01:09:44;14.80;99.90
3310;DHT22;1667;53.238;10.394;2023-10-09T01:14:44;14.70;99.90
3310;DHT22;1667;53.238;10.394;2023-10-09T01:19:46;14.70;99.90
3310;DHT22;1667;53.238;10.394;2023-10-09T01:24:46;14.70;99.90
3310;DHT22;1667;53.238;10.394;2023-10-09T01:29:51;14.60;99.90
3310;DHT22;1667;53.238;10.394;2023-10-09T01:34:50;14.60;99.90
3310;DHT22;1667;53.238;10.394;2023-10-09T01:39:51;14.60;99.90
3310;DHT22;1667;53.238;10.394;2023-10-09T01:44:50;14.60;99.90
3310;DHT22;1667;53.238;10.394;2023-10-09T01:49:50;14.60;99.90
3310;DHT22;1667;53.238;10.394;2023-10-09T01:54:53;14.60;99.90
3310;DHT22;1667;53.238;10.394;2023-10-09T01:59:59;14.50;99.90
3310;DHT22;1667;53.238;10.394;2023-10-09T02:05:08;14.50;99.90
3310;DHT22;1667;53.238;10.394;2023-10-09T02:10:24;14.50;99.90
3310;DHT22;1667;53.238;10.394;2023-10-09T02:15:31;14.50;99.90
3310;DHT22;1667;53.238;10.394;2023-10-09T02:20:52;14.40;99.90
3310;DHT22;1667;53.238;10.394;2023-10-09T02:26:00;14.40;99.90
3310;DHT22;1667;53.238;10.394;2023-10-09T02:31:10;14.40;99.90
3310;DHT22;1667;53.238;10.394;2023-10-09T02:36:10;14.40;99.90
3310;DHT22;1667;53.238;10.394;2023-10-09T02:41:12;14.30;99.90
3310;DHT22;1667;53.238;10.394;2023-10-09T02:46:21;14.20;99.90
3310;DHT22;1667;53.238;10.394;2023-10-09T02:51:27;14.30;99.90
3310;DHT22;1667;53.238;10.394;2023-10-09T02:56:32;14.20;99.90
3310;DHT22;1667;53.238;10.394;2023-10-09T03:01:36;14.20;99.90
3310;DHT22;1667;53.238;10.394;2023-10-09T03:06:35;14.20;99.90
3310;DHT22;1667;53.238;10.394;2023-10-09T03:11:42;14.00;99.90
3310;DHT22;1667;53.238;10.394;2023-10-09T03:16:41;13.90;99.90
3310;DHT22;1667;53.238;10.394;2023-10-09T03:21:41;14.00;99.90
3310;DHT22;1667;53.238;10.394;2023-10-09T03:26:42;14.10;99.90
3310;DHT22;1667;53.238;10.394;2023-10-09T03:31:42;14.10;99.90
3310;DHT22;1667;53.238;10.394;2023-10-09T03:36:41;14.00;99.90
3310;DHT22;1667;53.238;10.394;2023-10-09T03:41:42;13.90;99.90
3310;DHT22;1667;53.238;10.394;2023-10-09T03:47:12;13.90;99.90
3310;DHT22;1667;53.238;10.394;2023-10-09T03:52:14;13.90;99.90
3310;DHT22;1667;53.238;10.394;2023-10-09T03:57:16;13.90;99.90
3310;DHT22;1667;53.238;10.394;2023-10-09T04:02:17;13.90;99.90
3310;DHT22;1667;53.238;10.394;2023-10-09T04:07:19;13.90;99.90
3310;DHT22;1667;53.238;10.394;2023-10-09T04:12:20;13.80;99.90
3310;DHT22;1667;53.238;10.394;2023-10-09T04:17:23;13.70;99.90
3310;DHT22;1667;53.238;10.394;2023-10-09T04:22:40;13.80;99.90
3310;DHT22;1667;53.238;10.394;2023-10-09T04:27:49;13.70;99.90
3310;DHT22;1667;53.238;10.394;2023-10-09T04:32:50;13.60;99.90
3310;DHT22;1667;53.238;10.394;2023-10-09T04:37:52;13.70;99.90
3310;DHT22;1667;53.238;10.394;2023-10-09T04:43:03;13.70;99.90
3310;DHT22;1667;53.238;10.394;2023-10-09T04:48:04;13.70;99.90
3310;DHT22;1667;53.238;10.394;2023-10-09T04:53:05;13.70;99.90
3310;DHT22;1667;53.238;10.394;2023-10-09T04:58:21;13.70;99.90
3310;DHT22;1667;53.238;10.394;2023-10-09T05:03:24;13.70;99.90
3310;DHT22;1667;53.238;10.394;2023-10-09T05:08:27;13.70;99.90
3310;DHT22;1667;53.238;10.394;2023-10-09T05:13:33;13.70;99.90
3310;DHT22;1667;53.238;10.394;2023-10-09T05:19:07;13.70;99.90
3310;DHT22;1667;53.238;10.394;2023-10-09T05:24:25;13.80;99.90
3310;DHT22;1667;53.238;10.394;2023-10-09T05:29:28;13.80;99.90
3310;DHT22;1667;53.238;10.394;2023-10-09T05:34:45;13.70;99.90
3310;DHT22;1667;53.238;10.394;2023-10-09T05:39:59;13.70;99.90
3310;DHT22;1667;53.238;10.394;2023-10-09T05:45:21;13.70;99.90
3310;DHT22;1667;53.238;10.394;2023-10-09T05:50:39;13.60;99.90
3310;DHT22;1667;53.238;10.394;2023-10-09T05:55:58;13.70;99.90
3310;DHT22;1667;53.238;10.394;2023-10-09T06:01:15;13.70;99.90
3310;DHT22;1667;53.238;10.394;2023-10-09T06:06:30;13.80;99.90
3310;DHT22;1667;53.238;10.394;2023-10-09T06:11:31;13.80;99.90
3310;DHT22;1667;53.238;10.394;2023-10-09T06:16:48;13.70;99.90
3310;DHT22;1667;53.238;10.394;2023-10-09T06:22:27;13.70;99.90
3310;DHT22;1667;53.238;10.394;2023-10-09T06:27:44;13.70;99.90
3310;DHT22;1667;53.238;10.394;2023-10-09T06:33:00;13.80;99.90
3310;DHT22;1667;53.238;10.394;2023-10-09T06:38:18;13.80;99.90
3310;DHT22;1667;53.238;10.394;2023-10-09T06:43:37;13.70;99.90
3310;DHT22;1667;53.238;10.394;2023-10-09T06:48:46;13.80;99.90
3310;DHT22;1667;53.238;10.394;2023-10-09T06:53:55;13.80;99.90
3310;DHT22;1667;53.238;10.394;2023-10-09T06:59:03;13.80;99.90
3310;DHT22;1667;53.238;10.394;2023-10-09T07:04:13;13.80;99.90
3310;DHT22;1667;53.238;10.394;2023-10-09T07:09:38;13.80;99.90
3310;DHT22;1667;53.238;10.394;2023-10-09T07:14:40;13.80;99.90
3310;DHT22;1667;53.238;10.394;2023-10-09T07:20:19;13.80;99.90
3310;DHT22;1667;53.238;10.394;2023-10-09T07:25:32;13.80;99.90
3310;DHT22;1667;53.238;10.394;2023-10-09T07:30:52;13.80;99.90
3310;DHT22;1667;53.238;10.394;2023-10-09T07:35:58;13.80;99.90
3310;DHT22;1667;53.238;10.394;2023-10-09T07:41:04;13.90;99.90
3310;DHT22;1667;53.238;10.394;2023-10-09T07:46:18;13.90;99.90
3310;DHT22;1667;53.238;10.394;2023-10-09T07:51:39;13.90;99.90
3310;DHT22;1667;53.238;10.394;2023-10-09T07:56:42;13.90;99.90
3310;DHT22;1667;53.238;10.394;2023-10-09T08:01:45;14.00;99.90
3310;DHT22;1667;53.238;10.394;2023-10-09T08:06:52;14.00;99.90
3310;DHT22;1667;53.238;10.394;2023-10-09T08:12:12;14.00;99.90
3310;DHT22;1667;53.238;10.394;2023-10-09T08:17:40;14.00;99.90
3310;DHT22;1667;53.238;10.394;2023-10-09T08:22:47;14.00;99.90
3310;DHT22;1667;53.238;10.394;2023-10-09T08:27:50;14.00;99.90
3310;DHT22;1667;53.238;10.394;2023-10-09T08:32:53;14.00;99.90
3310;DHT22;1667;53.238;10.394;2023-10-09T08:38:04;14.10;99.90
3310;DHT22;1667;53.238;10.394;2023-10-09T08:48:39;14.10;99.90
3310;DHT22;1667;53.238;10.394;2023-10-09T08:53:40;14.10;99.90
3310;DHT22;1667;53.238;10.394;2023-10-09T08:58:40;14.20;99.90
3310;DHT22;1667;53.238;10.394;2023-10-09T09:03:41;14.20;99.90
3310;DHT22;1667;53.238;10.394;2023-10-09T09:08:43;14.20;99.90
3310;DHT22;1667;53.238;10.394;2023-10-09T09:13:48;14.30;99.90
3310;DHT22;1667;53.238;10.394;2023-10-09T09:19:04;14.30;99.90
3310;DHT22;1667;53.238;10.394;2023-10-09T09:24:18;14.30;99.90
3310;DHT22;1667;53.238;10.394;2023-10-09T09:29:24;14.40;99.90
3310;DHT22;1667;53.238;10.394;2023-10-09T09:34:43;14.30;99.90
3310;DHT22;1667;53.238;10.394;2023-10-09T09:39:47;14.40;99.90
3310;DHT22;1667;53.238;10.394;2023-10-09T09:44:52;14.40;99.90
3310;DHT22;1667;53.238;10.394;2023-10-09T09:49:54;14.40;99.90
3310;DHT22;1667;53.238;10.394;2023-10-09T09:54:59;14.40;99.90
3310;DHT22;1667;53.238;10.394;2023-10-09T09:59:59;14.50;99.90
3310;DHT22;1667;53.238;10.394;2023-10-09T10:05:08;14.50;99.90
3310;DHT22;1667;53.238;10.394;2023-10-09T10:10:35;14.50;99.90
3310;DHT22;1667;53.238;10.394;2023-10-09T10:15:58;14.60;99.90
3310;DHT22;1667;53.238;10.394;2023-10-09T10:21:12;14.60;99.90
3310;DHT22;1667;53.238;10.394;2023-10-09T10:26:19;14.60;99.90
3310;DHT22;1667;53.238;10.394;2023-10-09T10:31:53;14.60;99.90
3310;DHT22;1667;53.238;10.394;2023-10-09T10:36:53;14.60;99.90
3310;DHT22;1667;53.238;10.394;2023-10-09T10:41:58;14.60;99.90
3310;DHT22;1667;53.238;10.394;2023-10-09T10:47:26;14.60;99.90
3310;DHT22;1667;53.238;10.394;2023-10-09T10:53:06;14.60;99.90
3310;DHT22;1667;53.238;10.394;2023-10-09T10:58:41;14.70;99.90
3310;DHT22;1667;53.238;10.394;2023-10-09T11:03:58;14.80;99.90
3310;DHT22;1667;53.238;10.394;2023-10-09T11:08:57;14.80;99.90
3310;DHT22;1667;53.238;10.394;2023-10-09T11:14:11;14.80;99.90
3310;DHT22;1667;53.238;10.394;2023-10-09T11:19:13;14.90;99.90
3310;DHT22;1667;53.238;10.394;2023-10-09T11:31:10;15.00;99.90
3310;DHT22;1667;53.238;10.394;2023-10-09T11:36:35;14.90;99.90
3310;DHT22;1667;53.238;10.394;2023-10-09T11:41:39;15.00;99.90
3310;DHT22;1667;53.238;10.394;2023-10-09T11:46:57;15.00;99.90
3310;DHT22;1667;53.238;10.394;2023-10-09T11:52:05;15.10;99.90
3310;DHT22;1667;53.238;10.394;2023-10-09T11:57:26;15.10;99.90
3310;DHT22;1667;53.238;10.394;2023-10-09T12:02:32;15.10;99.90
3310;DHT22;1667;53.238;10.394;2023-10-09T12:07:41;15.10;99.90
3310;DHT22;1667;53.238;10.394;2023-10-09T12:12:40;15.20;99.90
3310;DHT22;1667;53.238;10.394;2023-10-09T12:17:50;15.20;99.90
3310;DHT22;1667;53.238;10.394;2023-10-09T12:22:51;15.20;99.90
3310;DHT22;1667;53.238;10.394;2023-10-09T12:27:50;15.30;99.90
3310;DHT22;1667;53.238;10.394;2023-10-09T12:32:53;15.30;99.90
3310;DHT22;1667;53.238;10.394;2023-10-09T12:37:55;15.30;99.90
3310;DHT22;1667;53.238;10.394;2023-10-09T12:42:53;15.30;99.90
3310;DHT22;1667;53.238;10.394;2023-10-09T12:47:55;15.30;99.90
3310;DHT22;1667;53.238;10.394;2023-10-09T12:52:57;15.30;99.90
3310;DHT22;1667;53.238;10.394;2023-10-09T13:04:55;15.40;99.90
3310;DHT22;1667;53.238;10.394;2023-10-09T13:09:53;15.40;99.90
3310;DHT22;1667;53.238;10.394;2023-10-09T13:22:04;15.60;99.90
3310;DHT22;1667;53.238;10.394;2023-10-09T13:27:10;15.60;99.90
3310;DHT22;1667;53.238;10.394;2023-10-09T13:32:10;15.70;99.90
3310;DHT22;1667;53.238;10.394;2023-10-09T13:37:13;15.70;99.90
3310;DHT22;1667;53.238;10.394;2023-10-09T13:42:19;15.70;99.90
3310;DHT22;1667;53.238;10.394;2023-10-09T13:47:22;15.70;99.90
3310;DHT22;1667;53.238;10.394;2023-10-09T13:52:30;15.70;99.90
3310;DHT22;1667;53.238;10.394;2023-10-09T13:57:36;15.80;99.90
3310;DHT22;1667;53.238;10.394;2023-10-09T14:02:35;15.80;99.90
3310;DHT22;1667;53.238;10.394;2023-10-09T14:07:36;15.90;99.90
3310;DHT22;1667;53.238;10.394;2023-10-09T14:12:35;15.90;99.90
3310;DHT22;1667;53.238;10.394;2023-10-09T14:17:37;15.90;99.90
3310;DHT22;1667;53.238;10.394;2023-10-09T14:22:41;16.00;99.90
3310;DHT22;1667;53.238;10.394;2023-10-09T14:27:40;16.00;99.90
3310;DHT22;1667;53.238;10.394;2023-10-09T14:32:39;16.10;99.90
3310;DHT22;1667;53.238;10.394;2023-10-09T14:37:47;16.10;99.90
3310;DHT22;1667;53.238;10.394;2023-10-09T14:42:46;16.10;99.90
3310;DHT22;1667;53.238;10.394;2023-10-09T14:47:45;16.20;99.90
3310;DHT22;1667;53.238;10.394;2023-10-09T14:52:44;16.20;99.90
3310;DHT22;1667;53.238;10.394;2023-10-09T15:03:34;16.30;99.90
3310;DHT22;1667;53.238;10.394;2023-10-09T15:08:35;16.30;99.90
3310;DHT22;1667;53.238;10.394;2023-10-09T15:13:33;16.30;99.90
3310;DHT22;1667;53.238;10.394;2023-10-09T15:24:11;16.30;99.90
3310;DHT22;1667;53.238;10.394;2023-10-09T15:29:15;16.30;99.90
3310;DHT22;1667;53.238;10.394;2023-10-09T15:34:17;16.30;99.90
3310;DHT22;1667;53.238;10.394;2023-10-09T15:39:24;16.30;99.90
3310;DHT22;1667;53.238;10.394;2023-10-09T15:44:22;16.30;99.90
3310;DHT22;1667;53.238;10.394;2023-10-09T15:49:24;16.30;99.90
3310;DHT22;1667;53.238;10.394;2023-10-09T15:54:26;16.30;99.90
3310;DHT22;1667;53.238;10.394;2023-10-09T15:59:26;16.30;99.90
3310;DHT22;1667;53.238;10.394;2023-10-09T16:04:25;16.30;99.90
3310;DHT22;1667;53.238;10.394;2023-10-09T16:09:25;16.30;99.90
3310;DHT22;1667;53.238;10.394;2023-10-09T16:14:27;16.30;99.90
3310;DHT22;1667;53.238;10.394;2023-10-09T16:19:26;16.30;99.90
3310;DHT22;1667;53.238;10.394;2023-10-09T16:24:32;16.30;99.90
3310;DHT22;1667;53.238;10.394;2023-10-09T16:29:35;16.40;99.90
3310;DHT22;1667;53.238;10.394;2023-10-09T16:34:36;16.40;99.90
3310;DHT22;1667;53.238;10.394;2023-10-09T16:39:37;16.40;99.90
3310;DHT22;1667;53.238;10.394;2023-10-09T16:44:36;16.40;99.90
3310;DHT22;1667;53.238;10.394;2023-10-09T16:49:35;16.40;99.90
3310;DHT22;1667;53.238;10.394;2023-10-09T16:54:43;16.40;99.90
3310;DHT22;1667;53.238;10.394;2023-10-09T16:59:41;16.40;99.90
3310;DHT22;1667;53.238;10.394;2023-10-09T17:04:41;16.40;99.90
3310;DHT22;1667;53.238;10.394;2023-10-09T17:09:43;16.30;99.90
3310;DHT22;1667;53.238;10.394;2023-10-09T17:14:55;16.40;99.90
3310;DHT22;1667;53.238;10.394;2023-10-09T17:19:54;16.40;99.90
3310;DHT22;1667;53.238;10.394;2023-10-09T17:24:54;16.40;99.90
3310;DHT22;1667;53.238;10.394;2023-10-09T17:29:53;16.40;99.90
3310;DHT22;1667;53.238;10.394;2023-10-09T17:34:55;16.50;99.90
3310;DHT22;1667;53.238;10.394;2023-10-09T17:39:56;16.50;99.90
3310;DHT22;1667;53.238;10.394;2023-10-09T17:44:55;16.50;99.90
3310;DHT22;1667;53.238;10.394;2023-10-09T17:49:55;16.50;99.90
3310;DHT22;1667;53.238;10.394;2023-10-09T17:54:57;16.60;99.90
3310;DHT22;1667;53.238;10.394;2023-10-09T17:59:58;16.60;99.90
3310;DHT22;1667;53.238;10.394;2023-10-09T18:04:57;16.60;99.90
3310;DHT22;1667;53.238;10.394;2023-10-09T18:09:58;16.60;99.90
3310;DHT22;1667;53.238;10.394;2023-10-09T18:14:59;16.70;99.90
3310;DHT22;1667;53.238;10.394;2023-10-09T18:20:03;16.60;99.90
3310;DHT22;1667;53.238;10.394;2023-10-09T18:25:05;16.60;99.90
3310;DHT22;1667;53.238;10.394;2023-10-09T18:30:07;16.60;99.90
3310;DHT22;1667;53.238;10.394;2023-10-09T18:35:09;16.60;99.90
3310;DHT22;1667;53.238;10.394;2023-10-09T18:40:10;16.60;99.90
3310;DHT22;1667;53.238;10.394;2023-10-09T18:45:09;16.50;99.90
3310;DHT22;1667;53.238;10.394;2023-10-09T18:50:13;16.50;99.90
3310;DHT22;1667;53.238;10.394;2023-10-09T18:55:15;16.50;99.90
3310;DHT22;1667;53.238;10.394;2023-10-09T19:00:16;16.40;99.90
3310;DHT22;1667;53.238;10.394;2023-10-09T19:05:18;16.40;99.90
3310;DHT22;1667;53.238;10.394;2023-10-09T19:10:44;16.40;99.90
3310;DHT22;1667;53.238;10.394;2023-10-09T19:15:49;16.40;99.90
3310;DHT22;1667;53.238;10.394;2023-10-09T19:20:49;16.40;99.90
3310;DHT22;1667;53.238;10.394;2023-10-09T19:25:50;16.40;99.90
3310;DHT22;1667;53.238;10.394;2023-10-09T19:30:50;16.40;99.90
3310;DHT22;1667;53.238;10.394;2023-10-09T19:35:49;16.40;99.90
3310;DHT22;1667;53.238;10.394;2023-10-09T19:40:51;16.40;99.90
3310;DHT22;1667;53.238;10.394;2023-10-09T19:45:50;16.40;99.90
3310;DHT22;1667;53.238;10.394;2023-10-09T19:50:49;16.40;99.90
3310;DHT22;1667;53.238;10.394;2023-10-09T19:55:50;16.40;99.90
3310;DHT22;1667;53.238;10.394;2023-10-09T20:00:50;16.40;99.90
3310;DHT22;1667;53.238;10.394;2023-10-09T20:05:50;16.50;99.90
3310;DHT22;1667;53.238;10.394;2023-10-09T20:10:50;16.40;99.90
3310;DHT22;1667;53.238;10.394;2023-10-09T20:15:55;16.50;99.90
3310;DHT22;1667;53.238;10.394;2023-10-09T20:20:54;16.50;99.90
3310;DHT22;1667;53.238;10.394;2023-10-09T20:26:00;16.50;99.90
3310;DHT22;1667;53.238;10.394;2023-10-09T20:31:00;16.50;99.90
3310;DHT22;1667;53.238;10.394;2023-10-09T20:36:05;16.50;99.90
3310;DHT22;1667;53.238;10.394;2023-10-09T20:41:09;16.50;99.90
3310;DHT22;1667;53.238;10.394;2023-10-09T20:46:09;16.50;99.90
3310;DHT22;1667;53.238;10.394;2023-10-09T20:51:09;16.50;99.90
3310;DHT22;1667;53.238;10.394;2023-10-09T20:56:09;16.50;99.90
3310;DHT22;1667;53.238;10.394;2023-10-09T21:01:09;16.50;99.90
3310;DHT22;1667;53.238;10.394;2023-10-09T21:06:13;16.50;99.90
3310;DHT22;1667;53.238;10.394;2023-10-09T21:11:14;16.50;99.90
3310;DHT22;1667;53.238;10.394;2023-10-09T21:16:14;16.50;99.90
3310;DHT22;1667;53.238;10.394;2023-10-09T21:21:15;16.50;99.90
3310;DHT22;1667;53.238;10.394;2023-10-09T21:26:20;16.50;99.90
3310;DHT22;1667;53.238;10.394;2023-10-09T21:31:21;16.50;99.90
3310;DHT22;1667;53.238;10.394;2023-10-09T21:36:20;16.50;99.90
3310;DHT22;1667;53.238;10.394;2023-10-09T21:48:04;16.50;99.90
3310;DHT22;1667;53.238;10.394;2023-10-09T21:53:05;16.50;99.90
3310;DHT22;1667;53.238;10.394;2023-10-09T21:58:04;16.50;99.90
3310;DHT22;1667;53.238;10.394;2023-10-09T22:03:09;16.50;99.90
3310;DHT22;1667;53.238;10.394;2023-10-09T22:08:09;16.50;99.90
3310;DHT22;1667;53.238;10.394;2023-10-09T22:13:09;16.50;99.90
3310;DHT22;1667;53.238;10.394;2023-10-09T22:18:10;16.50;99.90
3310;DHT22;1667;53.238;10.394;2023-10-09T22:23:12;16.50;99.90
3310;DHT22;1667;53.238;10.394;2023-10-09T22:28:10;16.50;99.90
3310;DHT22;1667;53.238;10.394;2023-10-09T22:33:12;16.50;99.90
3310;DHT22;1667;53.238;10.394;2023-10-09T22:38:17;16.50;99.90
3310;DHT22;1667;53.238;10.394;2023-10-09T22:43:18;16.50;99.90
3310;DHT22;1667;53.238;10.394;2023-10-09T22:48:22;16.50;99.90
3310;DHT22;1667;53.238;10.394;2023-10-09T22:53:25;16.40;99.90
3310;DHT22;1667;53.238;10.394;2023-10-09T22:58:35;16.40;99.90
3310;DHT22;1667;53.238;10.394;2023-10-09T23:03:58;16.40;99.90
3310;DHT22;1667;53.238;10.394;2023-10-09T23:09:14;16.40;99.90
3310;DHT22;1667;53.238;10.394;2023-10-09T23:14:14;16.40;99.90
3310;DHT22;1667;53.238;10.394;2023-10-09T23:19:24;16.40;99.90
3310;DHT22;1667;53.238;10.394;2023-10-09T23:24:42;16.40;99.90
3310;DHT22;1667;53.238;10.394;2023-10-09T23:29:51;16.40;99.90
3310;DHT22;1667;53.238;10.394;2023-10-09T23:34:52;16.40;99.90
3310;DHT22;1667;53.238;10.394;2023-10-09T23:39:54;16.40;99.90
3310;DHT22;1667;53.238;10.394;2023-10-09T23:44:53;16.40;99.90
3310;DHT22;1667;53.238;10.394;2023-10-09T23:49:55;16.40;99.90
3310;DHT22;1667;53.238;10.394;2023-10-09T23:54:55;16.30;99.90
3310;DHT22;1667;53.238;10.394;2023-10-09T23:59:58;16.40;99.90
